sensor_id;sensor_type;location;lat;lon;timestamp;pressure;altitude;pressure_sealevel;temperature;humidity
44148;BME280;29810;55.848;37.368;2023-02-17T00:02:58;99857.19;;;-5.52;67.08
44148;BME280;29810;55.848;37.368;2023-02-17T00:06:04;99858.78;;;-5.54;67.09
44148;BME280;29810;55.848;37.368;2023-02-17T00:09:06;99859.31;;;-5.63;67.00
44148;BME280;29810;55.848;37.368;2023-02-17T00:12:07;99866.41;;;-5.54;67.91
44148;BME280;29810;55.848;37.368;2023-02-17T00:15:09;99864.66;;;-5.78;67.26
44148;BME280;29810;55.848;37.368;2023-02-17T00:18:11;99869.25;;;-5.69;67.54
44148;BME280;29810;55.848;37.368;2023-02-17T00:21:15;99872.97;;;-5.82;67.42
44148;BME280;29810;55.848;37.368;2023-02-17T00:24:17;99869.75;;;-5.78;67.88
44148;BME280;29810;55.848;37.368;2023-02-17T00:27:18;99865.91;;;-5.68;67.92
44148;BME280;29810;55.848;37.368;2023-02-17T00:30:20;99865.09;;;-5.67;67.38
44148;BME280;29810;55.848;37.368;2023-02-17T00:33:22;99863.41;;;-5.67;67.22
44148;BME280;29810;55.848;37.368;2023-02-17T00:36:24;99861.16;;;-5.59;66.88
44148;BME280;29810;55.848;37.368;2023-02-17T00:39:26;99862.56;;;-5.67;66.96
44148;BME280;29810;55.848;37.368;2023-02-17T00:42:27;99858.88;;;-5.74;66.93
44148;BME280;29810;55.848;37.368;2023-02-17T00:45:33;99858.84;;;-5.75;67.40
44148;BME280;29810;55.848;37.368;2023-02-17T00:48:34;99850.50;;;-5.71;67.36
44148;BME280;29810;55.848;37.368;2023-02-17T00:51:36;99853.94;;;-5.71;67.69
44148;BME280;29810;55.848;37.368;2023-02-17T00:54:38;99851.63;;;-5.65;67.88
44148;BME280;29810;55.848;37.368;2023-02-17T00:57:44;99847.03;;;-5.52;67.35
44148;BME280;29810;55.848;37.368;2023-02-17T01:00:45;99843.78;;;-5.48;67.09
44148;BME280;29810;55.848;37.368;2023-02-17T01:03:47;99837.50;;;-5.58;66.50
44148;BME280;29810;55.848;37.368;2023-02-17T01:06:49;99842.22;;;-5.67;66.92
44148;BME280;29810;55.848;37.368;2023-02-17T01:09:50;99844.59;;;-5.72;67.42
44148;BME280;29810;55.848;37.368;2023-02-17T01:12:52;99840.78;;;-5.60;67.85
44148;BME280;29810;55.848;37.368;2023-02-17T01:15:56;99838.81;;;-5.45;67.77
44148;BME280;29810;55.848;37.368;2023-02-17T01:18:57;99836.44;;;-5.40;67.19
44148;BME280;29810;55.848;37.368;2023-02-17T01:21:59;99840.78;;;-5.38;67.33
44148;BME280;29810;55.848;37.368;2023-02-17T01:25:01;99832.44;;;-5.34;67.28
44148;BME280;29810;55.848;37.368;2023-02-17T01:28:05;99804.25;;;-5.40;67.54
44148;BME280;29810;55.848;37.368;2023-02-17T01:31:08;99828.25;;;-5.09;67.44
44148;BME280;29810;55.848;37.368;2023-02-17T01:34:10;99828.44;;;-5.04;66.77
44148;BME280;29810;55.848;37.368;2023-02-17T01:37:12;99831.59;;;-5.10;66.43
44148;BME280;29810;55.848;37.368;2023-02-17T01:40:16;99829.66;;;-5.17;66.55
44148;BME280;29810;55.848;37.368;2023-02-17T01:43:18;99827.00;;;-5.20;66.64
44148;BME280;29810;55.848;37.368;2023-02-17T01:46:19;99825.44;;;-5.17;66.50
44148;BME280;29810;55.848;37.368;2023-02-17T01:49:37;99828.13;;;-5.13;66.44
44148;BME280;29810;55.848;37.368;2023-02-17T01:52:40;99830.09;;;-5.05;66.18
44148;BME280;29810;55.848;37.368;2023-02-17T01:55:44;99829.78;;;-5.14;66.21
44148;BME280;29810;55.848;37.368;2023-02-17T01:58:52;99829.72;;;-5.16;66.23
44148;BME280;29810;55.848;37.368;2023-02-17T02:01:58;99835.28;;;-5.26;66.38
44148;BME280;29810;55.848;37.368;2023-02-17T02:05:02;99834.28;;;-5.29;66.34
44148;BME280;29810;55.848;37.368;2023-02-17T02:08:04;99854.22;;;-5.18;66.66
44148;BME280;29810;55.848;37.368;2023-02-17T02:11:08;99835.00;;;-5.11;66.48
44148;BME280;29810;55.848;37.368;2023-02-17T02:14:10;99833.56;;;-5.03;66.31
44148;BME280;29810;55.848;37.368;2023-02-17T02:17:29;99829.72;;;-5.16;66.19
44148;BME280;29810;55.848;37.368;2023-02-17T02:24:21;99835.00;;;-5.11;66.62
44148;BME280;29810;55.848;37.368;2023-02-17T02:31:25;99836.25;;;-5.22;66.35
44148;BME280;29810;55.848;37.368;2023-02-17T02:35:06;99832.50;;;-5.09;66.31
44148;BME280;29810;55.848;37.368;2023-02-17T02:38:24;99837.25;;;-4.94;66.03
44148;BME280;29810;55.848;37.368;2023-02-17T02:42:02;99832.28;;;-4.91;66.25
44148;BME280;29810;55.848;37.368;2023-02-17T02:45:08;99834.44;;;-4.78;66.32
44148;BME280;29810;55.848;37.368;2023-02-17T02:48:10;99834.00;;;-4.90;65.53
44148;BME280;29810;55.848;37.368;2023-02-17T02:57:56;99834.84;;;-4.91;67.35
44148;BME280;29810;55.848;37.368;2023-02-17T03:01:08;99835.63;;;-4.92;67.20
44148;BME280;29810;55.848;37.368;2023-02-17T03:04:36;99828.91;;;-4.90;67.34
44148;BME280;29810;55.848;37.368;2023-02-17T03:07:51;99830.22;;;-4.77;67.15
44148;BME280;29810;55.848;37.368;2023-02-17T03:10:55;99828.72;;;-4.71;67.16
44148;BME280;29810;55.848;37.368;2023-02-17T03:14:06;99819.44;;;-4.70;67.28
44148;BME280;29810;55.848;37.368;2023-02-17T03:17:09;99825.34;;;-4.71;66.45
44148;BME280;29810;55.848;37.368;2023-02-17T03:20:12;99824.13;;;-4.81;66.06
44148;BME280;29810;55.848;37.368;2023-02-17T03:23:14;99813.22;;;-5.03;66.30
44148;BME280;29810;55.848;37.368;2023-02-17T03:26:15;99818.00;;;-5.12;66.81
44148;BME280;29810;55.848;37.368;2023-02-17T03:29:17;99810.94;;;-5.19;67.64
44148;BME280;29810;55.848;37.368;2023-02-17T03:32:19;99826.00;;;-5.01;67.34
44148;BME280;29810;55.848;37.368;2023-02-17T03:35:21;99827.81;;;-4.97;67.24
44148;BME280;29810;55.848;37.368;2023-02-17T03:38:22;99825.34;;;-4.95;67.32
44148;BME280;29810;55.848;37.368;2023-02-17T03:41:24;99821.75;;;-5.01;66.93
44148;BME280;29810;55.848;37.368;2023-02-17T03:44:26;99823.94;;;-5.11;67.01
44148;BME280;29810;55.848;37.368;2023-02-17T03:47:28;99823.69;;;-5.18;67.25
44148;BME280;29810;55.848;37.368;2023-02-17T03:50:29;99813.19;;;-5.27;67.28
44148;BME280;29810;55.848;37.368;2023-02-17T03:53:31;99814.59;;;-5.35;67.87
44148;BME280;29810;55.848;37.368;2023-02-17T03:56:32;99811.25;;;-5.34;67.74
44148;BME280;29810;55.848;37.368;2023-02-17T03:59:35;99814.09;;;-5.26;67.77
44148;BME280;29810;55.848;37.368;2023-02-17T04:02:36;99813.94;;;-5.29;67.70
44148;BME280;29810;55.848;37.368;2023-02-17T04:05:38;99813.84;;;-5.33;67.75
44148;BME280;29810;55.848;37.368;2023-02-17T04:08:39;99812.59;;;-5.44;67.89
44148;BME280;29810;55.848;37.368;2023-02-17T04:11:41;99810.59;;;-5.53;68.14
44148;BME280;29810;55.848;37.368;2023-02-17T04:14:43;99820.66;;;-5.54;68.86
44148;BME280;29810;55.848;37.368;2023-02-17T04:17:44;99818.87;;;-5.57;68.51
44148;BME280;29810;55.848;37.368;2023-02-17T04:20:50;99819.06;;;-5.52;68.80
44148;BME280;29810;55.848;37.368;2023-02-17T04:23:51;99823.69;;;-5.42;68.52
44148;BME280;29810;55.848;37.368;2023-02-17T04:26:55;99777.78;;;-5.69;68.40
44148;BME280;29810;55.848;37.368;2023-02-17T04:29:56;99828.00;;;-5.39;68.60
44148;BME280;29810;55.848;37.368;2023-02-17T04:32:58;99826.66;;;-5.29;68.52
44148;BME280;29810;55.848;37.368;2023-02-17T04:36:00;99827.06;;;-5.19;68.80
44148;BME280;29810;55.848;37.368;2023-02-17T04:39:02;99823.94;;;-5.11;68.36
44148;BME280;29810;55.848;37.368;2023-02-17T04:42:07;99823.28;;;-5.06;68.09
44148;BME280;29810;55.848;37.368;2023-02-17T04:45:09;99827.88;;;-5.42;68.37
44148;BME280;29810;55.848;37.368;2023-02-17T04:48:11;99821.00;;;-5.45;69.23
44148;BME280;29810;55.848;37.368;2023-02-17T04:51:12;99822.19;;;-5.37;69.47
44148;BME280;29810;55.848;37.368;2023-02-17T04:54:14;99829.44;;;-5.23;69.26
44148;BME280;29810;55.848;37.368;2023-02-17T04:57:15;99817.66;;;-5.21;68.87
44148;BME280;29810;55.848;37.368;2023-02-17T05:00:17;99814.38;;;-5.19;69.00
44148;BME280;29810;55.848;37.368;2023-02-17T05:03:19;99826.84;;;-5.25;69.32
44148;BME280;29810;55.848;37.368;2023-02-17T05:06:21;99825.16;;;-5.24;69.39
44148;BME280;29810;55.848;37.368;2023-02-17T05:09:22;99818.03;;;-5.10;69.67
44148;BME280;29810;55.848;37.368;2023-02-17T05:12:25;99819.34;;;-4.97;69.71
44148;BME280;29810;55.848;37.368;2023-02-17T05:15:26;99809.97;;;-4.99;69.21
44148;BME280;29810;55.848;37.368;2023-02-17T05:18:28;99819.44;;;-4.94;68.97
44148;BME280;29810;55.848;37.368;2023-02-17T05:21:29;99819.22;;;-5.01;68.88
44148;BME280;29810;55.848;37.368;2023-02-17T05:24:31;99828.50;;;-5.03;69.07
44148;BME280;29810;55.848;37.368;2023-02-17T05:27:35;99824.88;;;-5.09;69.04
44148;BME280;29810;55.848;37.368;2023-02-17T05:30:37;99794.50;;;-5.29;68.98
44148;BME280;29810;55.848;37.368;2023-02-17T05:33:38;99822.75;;;-5.21;69.25
44148;BME280;29810;55.848;37.368;2023-02-17T05:36:40;99824.81;;;-5.11;69.49
44148;BME280;29810;55.848;37.368;2023-02-17T05:39:41;99828.81;;;-4.93;69.37
44148;BME280;29810;55.848;37.368;2023-02-17T05:42:43;99833.63;;;-4.77;69.05
44148;BME280;29810;55.848;37.368;2023-02-17T05:45:45;99837.53;;;-4.62;68.72
44148;BME280;29810;55.848;37.368;2023-02-17T05:48:47;99824.22;;;-4.54;68.52
44148;BME280;29810;55.848;37.368;2023-02-17T05:51:48;99841.66;;;-4.40;68.25
44148;BME280;29810;55.848;37.368;2023-02-17T05:54:50;99850.41;;;-4.32;67.97
44148;BME280;29810;55.848;37.368;2023-02-17T05:57:51;99843.13;;;-4.21;67.78
44148;BME280;29810;55.848;37.368;2023-02-17T06:00:53;99851.09;;;-4.10;67.40
44148;BME280;29810;55.848;37.368;2023-02-17T06:03:55;99850.25;;;-4.11;67.25
44148;BME280;29810;55.848;37.368;2023-02-17T06:06:56;99846.47;;;-4.22;66.60
44148;BME280;29810;55.848;37.368;2023-02-17T06:09:58;99854.81;;;-4.26;67.26
44148;BME280;29810;55.848;37.368;2023-02-17T06:13:00;99854.22;;;-4.19;67.45
44148;BME280;29810;55.848;37.368;2023-02-17T06:16:02;99851.97;;;-4.10;67.44
44148;BME280;29810;55.848;37.368;2023-02-17T06:19:04;99849.81;;;-3.97;67.25
44148;BME280;29810;55.848;37.368;2023-02-17T06:22:06;99852.66;;;-3.88;67.04
44148;BME280;29810;55.848;37.368;2023-02-17T06:25:08;99849.56;;;-3.78;66.81
44148;BME280;29810;55.848;37.368;2023-02-17T06:28:10;99848.81;;;-3.75;66.41
44148;BME280;29810;55.848;37.368;2023-02-17T06:31:11;99855.87;;;-3.67;66.32
44148;BME280;29810;55.848;37.368;2023-02-17T06:34:14;99857.47;;;-3.70;65.89
44148;BME280;29810;55.848;37.368;2023-02-17T06:37:16;99859.38;;;-3.63;65.89
44148;BME280;29810;55.848;37.368;2023-02-17T06:40:18;99848.50;;;-3.57;65.73
44148;BME280;29810;55.848;37.368;2023-02-17T06:43:19;99857.16;;;-3.52;65.46
44148;BME280;29810;55.848;37.368;2023-02-17T06:46:21;99857.16;;;-3.52;65.49
44148;BME280;29810;55.848;37.368;2023-02-17T06:49:23;99855.03;;;-3.67;65.67
44148;BME280;29810;55.848;37.368;2023-02-17T06:52:24;99854.47;;;-3.57;66.00
44148;BME280;29810;55.848;37.368;2023-02-17T06:55:26;99859.91;;;-3.46;65.87
44148;BME280;29810;55.848;37.368;2023-02-17T06:58:28;99856.31;;;-3.53;65.52
44148;BME280;29810;55.848;37.368;2023-02-17T07:01:29;99854.16;;;-3.39;65.66
44148;BME280;29810;55.848;37.368;2023-02-17T07:04:31;99851.63;;;-3.37;65.46
44148;BME280;29810;55.848;37.368;2023-02-17T07:07:33;99839.97;;;-3.30;65.22
44148;BME280;29810;55.848;37.368;2023-02-17T07:10:35;99841.94;;;-3.20;64.98
44148;BME280;29810;55.848;37.368;2023-02-17T07:13:37;99836.78;;;-3.22;64.74
44148;BME280;29810;55.848;37.368;2023-02-17T07:16:39;99847.94;;;-3.18;64.98
44148;BME280;29810;55.848;37.368;2023-02-17T07:19:41;99835.41;;;-3.10;64.67
44148;BME280;29810;55.848;37.368;2023-02-17T07:22:42;99845.03;;;-3.02;64.63
44148;BME280;29810;55.848;37.368;2023-02-17T07:25:44;99840.84;;;-2.98;64.07
44148;BME280;29810;55.848;37.368;2023-02-17T07:28:46;99835.63;;;-3.03;64.36
44148;BME280;29810;55.848;37.368;2023-02-17T07:31:47;99837.41;;;-3.00;64.36
44148;BME280;29810;55.848;37.368;2023-02-17T07:34:49;99835.41;;;-3.10;64.42
44148;BME280;29810;55.848;37.368;2023-02-17T07:37:50;99834.59;;;-3.09;64.50
44148;BME280;29810;55.848;37.368;2023-02-17T07:40:52;99826.91;;;-3.11;64.32
44148;BME280;29810;55.848;37.368;2023-02-17T07:43:54;99834.06;;;-2.97;64.50
44148;BME280;29810;55.848;37.368;2023-02-17T07:46:57;99831.28;;;-3.07;64.37
44148;BME280;29810;55.848;37.368;2023-02-17T07:49:59;99814.94;;;-3.13;64.37
44148;BME280;29810;55.848;37.368;2023-02-17T07:53:00;99832.50;;;-2.92;64.31
44148;BME280;29810;55.848;37.368;2023-02-17T07:56:03;99829.44;;;-2.80;64.16
44148;BME280;29810;55.848;37.368;2023-02-17T07:59:10;99827.91;;;-2.74;63.46
44148;BME280;29810;55.848;37.368;2023-02-17T08:02:11;99831.28;;;-2.75;63.52
44148;BME280;29810;55.848;37.368;2023-02-17T08:05:13;99833.75;;;-2.78;63.35
44148;BME280;29810;55.848;37.368;2023-02-17T08:08:14;99822.78;;;-2.74;63.95
44148;BME280;29810;55.848;37.368;2023-02-17T08:11:35;99823.72;;;-2.72;63.74
44148;BME280;29810;55.848;37.368;2023-02-17T08:14:56;99814.50;;;-2.67;63.53
44148;BME280;29810;55.848;37.368;2023-02-17T08:17:58;99820.69;;;-2.57;63.43
44148;BME280;29810;55.848;37.368;2023-02-17T08:21:00;99821.69;;;-2.50;63.29
44148;BME280;29810;55.848;37.368;2023-02-17T08:24:03;99820.66;;;-2.58;63.22
44148;BME280;29810;55.848;37.368;2023-02-17T08:27:04;99817.87;;;-2.68;63.36
44148;BME280;29810;55.848;37.368;2023-02-17T08:30:07;99811.09;;;-2.66;63.53
44148;BME280;29810;55.848;37.368;2023-02-17T08:33:08;99817.34;;;-2.54;63.32
44148;BME280;29810;55.848;37.368;2023-02-17T08:36:10;99822.75;;;-2.42;63.36
44148;BME280;29810;55.848;37.368;2023-02-17T08:39:14;99821.94;;;-2.41;63.18
44148;BME280;29810;55.848;37.368;2023-02-17T08:42:16;99814.41;;;-2.36;63.23
44148;BME280;29810;55.848;37.368;2023-02-17T08:45:18;99813.09;;;-2.54;63.45
44148;BME280;29810;55.848;37.368;2023-02-17T08:48:19;99819.53;;;-2.68;63.53
44148;BME280;29810;55.848;37.368;2023-02-17T08:51:22;99820.06;;;-2.80;64.25
44148;BME280;29810;55.848;37.368;2023-02-17T08:54:28;99808.53;;;-2.66;64.04
44148;BME280;29810;55.848;37.368;2023-02-17T09:01:42;99803.75;;;-2.53;64.25
44148;BME280;29810;55.848;37.368;2023-02-17T09:04:44;99821.47;;;-2.59;63.73
44148;BME280;29810;55.848;37.368;2023-02-17T09:07:45;99820.97;;;-2.44;63.82
44148;BME280;29810;55.848;37.368;2023-02-17T09:10:51;99816.69;;;-2.47;63.75
44148;BME280;29810;55.848;37.368;2023-02-17T09:13:52;99816.84;;;-2.39;63.73
44148;BME280;29810;55.848;37.368;2023-02-17T09:16:55;99807.69;;;-2.33;63.52
44148;BME280;29810;55.848;37.368;2023-02-17T09:19:57;99807.25;;;-2.14;63.26
44148;BME280;29810;55.848;37.368;2023-02-17T09:23:00;99809.41;;;-1.95;62.42
44148;BME280;29810;55.848;37.368;2023-02-17T09:26:03;99806.34;;;-1.80;61.71
44148;BME280;29810;55.848;37.368;2023-02-17T09:29:06;99811.63;;;-1.72;61.36
44148;BME280;29810;55.848;37.368;2023-02-17T09:32:09;99794.50;;;-1.76;61.35
44148;BME280;29810;55.848;37.368;2023-02-17T09:35:13;99804.66;;;-1.79;60.74
44148;BME280;29810;55.848;37.368;2023-02-17T09:38:15;99800.53;;;-1.73;61.00
44148;BME280;29810;55.848;37.368;2023-02-17T09:41:38;99800.44;;;-1.77;60.91
44148;BME280;29810;55.848;37.368;2023-02-17T09:45:01;99792.31;;;-1.59;61.00
44148;BME280;29810;55.848;37.368;2023-02-17T09:48:21;99783.25;;;-1.45;60.29
44148;BME280;29810;55.848;37.368;2023-02-17T09:55:33;99786.34;;;-1.17;59.29
44148;BME280;29810;55.848;37.368;2023-02-17T09:58:47;99778.03;;;-1.07;58.91
44148;BME280;29810;55.848;37.368;2023-02-17T10:02:12;99785.84;;;-0.99;58.37
44148;BME280;29810;55.848;37.368;2023-02-17T10:05:21;99781.53;;;-1.02;59.29
44148;BME280;29810;55.848;37.368;2023-02-17T10:08:25;99778.75;;;-1.12;59.50
44148;BME280;29810;55.848;37.368;2023-02-17T10:11:34;99779.44;;;-0.77;60.36
44148;BME280;29810;55.848;37.368;2023-02-17T10:18:25;99779.69;;;-1.09;59.27
44148;BME280;29810;55.848;37.368;2023-02-17T10:21:35;99779.31;;;-1.27;60.02
44148;BME280;29810;55.848;37.368;2023-02-17T10:24:38;99762.66;;;-1.50;59.74
44148;BME280;29810;55.848;37.368;2023-02-17T10:34:03;99760.41;;;-1.75;60.59
44148;BME280;29810;55.848;37.368;2023-02-17T10:40:26;99755.84;;;-1.90;60.09
44148;BME280;29810;55.848;37.368;2023-02-17T10:43:30;99747.41;;;-2.24;60.71
44148;BME280;29810;55.848;37.368;2023-02-17T10:46:32;99750.88;;;-2.57;61.66
44148;BME280;29810;55.848;37.368;2023-02-17T10:49:40;99751.38;;;-2.71;61.84
44148;BME280;29810;55.848;37.368;2023-02-17T10:52:43;99749.31;;;-2.52;62.27
44148;BME280;29810;55.848;37.368;2023-02-17T10:56:16;99749.16;;;-2.58;61.35
44148;BME280;29810;55.848;37.368;2023-02-17T10:59:32;99746.81;;;-2.84;62.52
44148;BME280;29810;55.848;37.368;2023-02-17T11:02:41;99737.53;;;-2.80;62.69
44148;BME280;29810;55.848;37.368;2023-02-17T11:05:43;99740.28;;;-2.73;62.46
44148;BME280;29810;55.848;37.368;2023-02-17T11:08:49;99732.81;;;-2.65;62.15
44148;BME280;29810;55.848;37.368;2023-02-17T11:15:02;99732.56;;;-2.39;61.93
44148;BME280;29810;55.848;37.368;2023-02-17T11:18:10;99731.09;;;-2.31;61.70
44148;BME280;29810;55.848;37.368;2023-02-17T11:21:13;99723.81;;;-2.14;61.28
44148;BME280;29810;55.848;37.368;2023-02-17T11:24:15;99723.78;;;-2.15;60.75
44148;BME280;29810;55.848;37.368;2023-02-17T11:27:23;99717.59;;;-2.24;61.03
44148;BME280;29810;55.848;37.368;2023-02-17T11:30:34;99719.25;;;-2.27;61.19
44148;BME280;29810;55.848;37.368;2023-02-17T11:33:38;99717.44;;;-2.31;61.44
44148;BME280;29810;55.848;37.368;2023-02-17T11:36:43;99714.81;;;-2.35;61.54
44148;BME280;29810;55.848;37.368;2023-02-17T11:39:48;99711.50;;;-2.30;61.74
44148;BME280;29810;55.848;37.368;2023-02-17T11:42:56;99706.13;;;-2.43;61.58
44148;BME280;29810;55.848;37.368;2023-02-17T12:19:40;99683.44;;;-2.66;62.17
44148;BME280;29810;55.848;37.368;2023-02-17T12:29:54;99687.44;;;-2.77;62.36
44148;BME280;29810;55.848;37.368;2023-02-17T12:36:29;99686.75;;;-2.70;63.21
44148;BME280;29810;55.848;37.368;2023-02-17T12:39:47;99676.00;;;-2.56;62.99
44148;BME280;29810;55.848;37.368;2023-02-17T12:43:00;99670.47;;;-2.37;63.36
44148;BME280;29810;55.848;37.368;2023-02-17T12:46:08;99675.75;;;-2.30;62.77
44148;BME280;29810;55.848;37.368;2023-02-17T12:49:17;99676.50;;;-2.35;62.42
44148;BME280;29810;55.848;37.368;2023-02-17T12:52:36;99669.47;;;-2.43;62.58
44148;BME280;29810;55.848;37.368;2023-02-17T12:55:45;99666.22;;;-2.38;62.95
44148;BME280;29810;55.848;37.368;2023-02-17T12:58:50;99666.31;;;-2.33;62.91
44148;BME280;29810;55.848;37.368;2023-02-17T13:02:05;99671.34;;;-2.38;62.86
44148;BME280;29810;55.848;37.368;2023-02-17T13:05:17;99664.63;;;-2.33;63.18
44148;BME280;29810;55.848;37.368;2023-02-17T13:08:30;99646.38;;;-2.50;63.32
44148;BME280;29810;55.848;37.368;2023-02-17T13:11:35;99666.13;;;-2.41;63.52
44148;BME280;29810;55.848;37.368;2023-02-17T13:17:55;99660.66;;;-2.56;64.43
44148;BME280;29810;55.848;37.368;2023-02-17T13:24:36;99663.06;;;-2.64;64.59
44148;BME280;29810;55.848;37.368;2023-02-17T13:27:39;99659.78;;;-2.58;64.77
44148;BME280;29810;55.848;37.368;2023-02-17T13:30:44;99655.91;;;-2.79;64.08
44148;BME280;29810;55.848;37.368;2023-02-17T13:33:51;99657.69;;;-3.10;64.62
44148;BME280;29810;55.848;37.368;2023-02-17T13:36:53;99654.94;;;-3.18;65.45
44148;BME280;29810;55.848;37.368;2023-02-17T13:39:55;99648.94;;;-3.20;65.42
44148;BME280;29810;55.848;37.368;2023-02-17T13:42:56;99643.81;;;-3.21;65.61
44148;BME280;29810;55.848;37.368;2023-02-17T13:46:14;99648.97;;;-3.18;65.50
44148;BME280;29810;55.848;37.368;2023-02-17T13:49:22;99647.56;;;-3.07;65.59
44148;BME280;29810;55.848;37.368;2023-02-17T13:52:26;99645.16;;;-3.01;65.40
44148;BME280;29810;55.848;37.368;2023-02-17T13:55:29;99643.31;;;-3.06;64.98
44148;BME280;29810;55.848;37.368;2023-02-17T13:58:32;99638.78;;;-3.18;65.26
44148;BME280;29810;55.848;37.368;2023-02-17T14:01:37;99642.25;;;-3.16;65.64
44148;BME280;29810;55.848;37.368;2023-02-17T14:04:42;99640.41;;;-3.20;65.74
44148;BME280;29810;55.848;37.368;2023-02-17T14:07:44;99634.69;;;-3.11;65.73
44148;BME280;29810;55.848;37.368;2023-02-17T14:10:49;99638.03;;;-3.14;65.65
44148;BME280;29810;55.848;37.368;2023-02-17T14:13:53;99632.09;;;-3.13;65.88
44148;BME280;29810;55.848;37.368;2023-02-17T14:17:05;99630.53;;;-3.08;65.81
44148;BME280;29810;55.848;37.368;2023-02-17T14:20:22;99632.09;;;-3.13;65.51
44148;BME280;29810;55.848;37.368;2023-02-17T14:23:24;99623.41;;;-3.21;65.47
44148;BME280;29810;55.848;37.368;2023-02-17T14:26:47;99631.09;;;-3.20;65.46
44148;BME280;29810;55.848;37.368;2023-02-17T14:29:49;99626.16;;;-3.13;65.71
44148;BME280;29810;55.848;37.368;2023-02-17T14:33:21;99621.59;;;-3.25;65.51
44148;BME280;29810;55.848;37.368;2023-02-17T14:36:33;99622.53;;;-3.22;65.92
44148;BME280;29810;55.848;37.368;2023-02-17T14:39:35;99620.81;;;-3.23;65.76
44148;BME280;29810;55.848;37.368;2023-02-17T14:42:36;99609.44;;;-3.36;65.69
44148;BME280;29810;55.848;37.368;2023-02-17T14:45:38;99617.91;;;-3.37;66.08
44148;BME280;29810;55.848;37.368;2023-02-17T14:48:39;99623.66;;;-3.44;66.09
44148;BME280;29810;55.848;37.368;2023-02-17T14:51:41;99621.91;;;-3.46;66.25
44148;BME280;29810;55.848;37.368;2023-02-17T14:54:43;99623.62;;;-3.45;66.42
44148;BME280;29810;55.848;37.368;2023-02-17T14:57:44;99617.78;;;-3.41;66.54
44148;BME280;29810;55.848;37.368;2023-02-17T15:00:47;99619.47;;;-3.42;66.47
44148;BME280;29810;55.848;37.368;2023-02-17T15:03:49;99630.63;;;-3.38;66.64
44148;BME280;29810;55.848;37.368;2023-02-17T15:06:51;99612.87;;;-3.34;66.41
44148;BME280;29810;55.848;37.368;2023-02-17T15:09:54;99619.34;;;-3.46;66.44
44148;BME280;29810;55.848;37.368;2023-02-17T15:12:56;99633.81;;;-3.45;66.57
44148;BME280;29810;55.848;37.368;2023-02-17T15:15:58;99626.31;;;-3.41;66.57
44148;BME280;29810;55.848;37.368;2023-02-17T15:19:00;99634.09;;;-3.35;66.36
44148;BME280;29810;55.848;37.368;2023-02-17T15:22:01;99626.44;;;-3.35;66.37
44148;BME280;29810;55.848;37.368;2023-02-17T15:25:11;99631.66;;;-3.31;66.32
44148;BME280;29810;55.848;37.368;2023-02-17T15:28:16;99630.03;;;-3.28;66.38
44148;BME280;29810;55.848;37.368;2023-02-17T15:31:19;99624.03;;;-3.30;66.54
44148;BME280;29810;55.848;37.368;2023-02-17T15:34:25;99624.97;;;-3.26;66.56
44148;BME280;29810;55.848;37.368;2023-02-17T15:37:29;99623.28;;;-3.26;66.48
44148;BME280;29810;55.848;37.368;2023-02-17T15:40:32;99620.81;;;-3.23;66.48
44148;BME280;29810;55.848;37.368;2023-02-17T15:43:34;99625.97;;;-3.21;66.42
44148;BME280;29810;55.848;37.368;2023-02-17T15:46:36;99614.81;;;-3.25;66.42
44148;BME280;29810;55.848;37.368;2023-02-17T15:49:39;99612.25;;;-3.25;66.46
44148;BME280;29810;55.848;37.368;2023-02-17T15:52:43;99620.72;;;-3.26;66.38
44148;BME280;29810;55.848;37.368;2023-02-17T15:55:46;99613.78;;;-3.31;66.57
44148;BME280;29810;55.848;37.368;2023-02-17T15:58:48;99585.34;;;-3.47;66.47
44148;BME280;29810;55.848;37.368;2023-02-17T16:01:52;99610.25;;;-3.37;66.49
44148;BME280;29810;55.848;37.368;2023-02-17T16:05:01;99606.53;;;-3.50;66.62
44148;BME280;29810;55.848;37.368;2023-02-17T16:08:04;99604.50;;;-3.63;66.70
44148;BME280;29810;55.848;37.368;2023-02-17T16:11:12;99599.59;;;-3.87;66.99
44148;BME280;29810;55.848;37.368;2023-02-17T16:14:30;99609.53;;;-3.96;67.51
44148;BME280;29810;55.848;37.368;2023-02-17T16:17:34;99595.81;;;-4.00;67.81
44148;BME280;29810;55.848;37.368;2023-02-17T16:20:35;99584.72;;;-4.33;67.65
44148;BME280;29810;55.848;37.368;2023-02-17T16:23:37;99600.91;;;-4.30;68.02
44148;BME280;29810;55.848;37.368;2023-02-17T16:26:39;99597.28;;;-4.39;68.31
44148;BME280;29810;55.848;37.368;2023-02-17T16:29:42;99594.56;;;-4.45;68.62
44148;BME280;29810;55.848;37.368;2023-02-17T16:32:44;99600.22;;;-4.54;68.59
44148;BME280;29810;55.848;37.368;2023-02-17T16:35:48;99589.81;;;-4.61;68.88
44148;BME280;29810;55.848;37.368;2023-02-17T16:38:50;99582.56;;;-4.78;69.13
44148;BME280;29810;55.848;37.368;2023-02-17T16:41:52;99575.38;;;-4.91;69.43
44148;BME280;29810;55.848;37.368;2023-02-17T16:44:53;99586.97;;;-5.00;69.83
44148;BME280;29810;55.848;37.368;2023-02-17T16:47:58;99581.53;;;-5.10;70.21
44148;BME280;29810;55.848;37.368;2023-02-17T16:51:00;99556.88;;;-5.13;71.19
44148;BME280;29810;55.848;37.368;2023-02-17T16:54:01;99571.84;;;-4.95;70.95
44148;BME280;29810;55.848;37.368;2023-02-17T16:57:03;99572.38;;;-5.05;71.21
44148;BME280;29810;55.848;37.368;2023-02-17T17:00:06;99559.34;;;-5.16;71.13
44148;BME280;29810;55.848;37.368;2023-02-17T17:03:08;99561.81;;;-5.18;71.59
44148;BME280;29810;55.848;37.368;2023-02-17T17:06:22;99549.09;;;-5.18;71.72
44148;BME280;29810;55.848;37.368;2023-02-17T17:09:24;99542.31;;;-5.19;72.53
44148;BME280;29810;55.848;37.368;2023-02-17T17:12:26;99543.91;;;-5.21;72.23
44148;BME280;29810;55.848;37.368;2023-02-17T17:15:28;99535.28;;;-5.26;71.96
44148;BME280;29810;55.848;37.368;2023-02-17T17:18:31;99525.69;;;-5.35;72.14
44148;BME280;29810;55.848;37.368;2023-02-17T17:21:34;99513.69;;;-5.39;72.81
44148;BME280;29810;55.848;37.368;2023-02-17T17:24:53;99518.13;;;-5.33;73.03
44148;BME280;29810;55.848;37.368;2023-02-17T17:28:13;99512.06;;;-5.37;73.31
44148;BME280;29810;55.848;37.368;2023-02-17T17:31:16;99505.94;;;-5.43;73.15
44148;BME280;29810;55.848;37.368;2023-02-17T17:34:19;99505.72;;;-5.50;73.18
44148;BME280;29810;55.848;37.368;2023-02-17T17:37:21;99500.72;;;-5.46;73.51